createdAt,value
2022-11-22T00:00:02.292Z,-0.93
2022-11-22T00:01:02.305Z,-0.93
2022-11-22T00:02:02.326Z,-0.91
2022-11-22T00:03:02.261Z,-0.91
2022-11-22T00:04:02.240Z,-0.91
2022-11-22T00:05:02.239Z,-0.90
2022-11-22T00:06:02.269Z,-0.90
2022-11-22T00:07:02.254Z,-0.90
2022-11-22T00:08:02.203Z,-0.89
2022-11-22T00:09:02.188Z,-0.86
2022-11-22T00:10:02.213Z,-0.89
2022-11-22T00:11:02.175Z,-0.85
2022-11-22T00:12:02.146Z,-0.85
2022-11-22T00:13:02.134Z,-0.82
2022-11-22T00:14:02.127Z,-0.83
2022-11-22T00:15:02.109Z,-0.82
2022-11-22T00:16:02.109Z,-0.82
2022-11-22T00:17:02.120Z,-0.83
2022-11-22T00:18:02.065Z,-0.83
2022-11-22T00:19:02.064Z,-0.82
2022-11-22T00:20:02.046Z,-0.78
2022-11-22T00:21:02.045Z,-0.78
2022-11-22T00:22:02.014Z,-0.82
2022-11-22T00:23:02.024Z,-0.78
2022-11-22T00:24:01.999Z,-0.78
2022-11-22T00:25:01.983Z,-0.77
2022-11-22T00:26:01.975Z,-0.75
2022-11-22T00:27:01.963Z,-0.74
2022-11-22T00:28:01.955Z,-0.74
2022-11-22T00:29:01.932Z,-0.71
2022-11-22T00:30:01.913Z,-0.71
2022-11-22T00:31:01.923Z,-0.71
2022-11-22T00:32:01.902Z,-0.70
2022-11-22T00:33:01.881Z,-0.68
2022-11-22T00:34:01.916Z,-0.67
2022-11-22T00:35:01.858Z,-0.65
2022-11-22T00:36:01.854Z,-0.67
2022-11-22T00:37:01.830Z,-0.65
2022-11-22T00:38:01.834Z,-0.65
2022-11-22T00:39:01.801Z,-0.62
2022-11-22T00:40:01.790Z,-0.62
2022-11-22T00:41:01.790Z,-0.61
2022-11-22T00:42:01.766Z,-0.59
2022-11-22T00:43:01.761Z,-0.62
2022-11-22T00:44:01.739Z,-0.61
2022-11-22T00:45:01.731Z,-0.61
2022-11-22T00:46:01.736Z,-0.61
2022-11-22T00:47:01.700Z,-0.59
2022-11-22T00:48:01.689Z,-0.57
2022-11-22T00:49:01.678Z,-0.57
2022-11-22T00:50:01.661Z,-0.56
2022-11-22T00:51:01.672Z,-0.56
2022-11-22T00:52:01.637Z,-0.54
2022-11-22T00:53:01.629Z,-0.56
2022-11-22T00:54:01.607Z,-0.56
2022-11-22T00:55:01.596Z,-0.54
2022-11-22T00:56:01.604Z,-0.56
2022-11-22T00:57:01.577Z,-0.54
2022-11-22T00:58:01.559Z,-0.53
2022-11-22T00:59:01.674Z,-0.50
2022-11-22T01:00:01.535Z,-0.52
2022-11-22T01:01:01.585Z,-0.53
2022-11-22T01:02:01.505Z,-0.52
2022-11-22T01:03:01.502Z,-0.52
2022-11-22T01:04:01.485Z,-0.50
2022-11-22T01:05:01.465Z,-0.50
2022-11-22T01:06:01.481Z,-0.50
2022-11-22T01:07:01.475Z,-0.50
2022-11-22T01:08:01.441Z,-0.50
2022-11-22T01:09:01.413Z,-0.47
2022-11-22T01:10:01.422Z,-0.50
2022-11-22T01:11:01.417Z,-0.47
2022-11-22T01:12:01.392Z,-0.49
2022-11-22T01:13:01.371Z,-0.47
2022-11-22T01:14:01.363Z,-0.49
2022-11-22T01:15:01.340Z,-0.49
2022-11-22T01:16:01.343Z,-0.46
2022-11-22T01:17:01.319Z,-0.46
2022-11-22T01:18:01.308Z,-0.47
2022-11-22T01:19:01.289Z,-0.44
2022-11-22T01:20:01.279Z,-0.46
2022-11-22T01:21:01.286Z,-0.46
2022-11-22T01:22:01.265Z,-0.44
2022-11-22T01:23:01.239Z,-0.41
2022-11-22T01:24:01.232Z,-0.43
2022-11-22T01:25:01.225Z,-0.41
2022-11-22T01:26:01.226Z,-0.41
2022-11-22T01:27:01.194Z,-0.41
2022-11-22T01:28:01.189Z,-0.43
2022-11-22T01:29:01.174Z,-0.39
2022-11-22T01:30:01.159Z,-0.39
2022-11-22T01:31:01.166Z,-0.39
2022-11-22T01:32:01.145Z,-0.39
2022-11-22T01:33:01.116Z,-0.36
2022-11-22T01:34:01.105Z,-0.36
2022-11-22T01:35:01.086Z,-0.38
2022-11-22T01:36:01.107Z,-0.35
2022-11-22T01:37:01.065Z,-0.36
2022-11-22T01:38:01.056Z,-0.35
2022-11-22T01:39:01.048Z,-0.36
2022-11-22T01:40:01.036Z,-0.35
2022-11-22T01:41:01.027Z,-0.35
2022-11-22T01:42:01.012Z,-0.34
2022-11-22T01:43:00.997Z,-0.34
2022-11-22T01:44:00.983Z,-0.34
2022-11-22T01:45:00.967Z,-0.32
2022-11-22T01:46:00.973Z,-0.32
2022-11-22T01:47:00.943Z,-0.34
2022-11-22T01:48:00.953Z,-0.34
2022-11-22T01:49:00.920Z,-0.32
2022-11-22T01:50:00.937Z,-0.32
2022-11-22T01:51:00.924Z,-0.31
2022-11-22T01:52:00.891Z,-0.28
2022-11-22T01:53:00.885Z,-0.29
2022-11-22T01:54:00.864Z,-0.28
2022-11-22T01:55:00.870Z,-0.28
2022-11-22T01:56:00.850Z,-0.28
2022-11-22T01:57:00.839Z,-0.28
2022-11-22T01:58:00.820Z,-0.28
2022-11-22T01:59:00.799Z,-0.26
2022-11-22T02:00:00.800Z,-0.26
2022-11-22T02:01:00.926Z,-0.25
2022-11-22T02:02:00.770Z,-0.25
2022-11-22T02:03:00.770Z,-0.23
2022-11-22T02:04:00.744Z,-0.21
2022-11-22T02:05:00.758Z,-0.23
2022-11-22T02:06:00.730Z,-0.21
2022-11-22T02:07:00.710Z,-0.21
2022-11-22T02:08:00.699Z,-0.20
2022-11-22T02:09:00.690Z,-0.18
2022-11-22T02:10:00.668Z,-0.18
2022-11-22T02:11:00.660Z,-0.18
2022-11-22T02:12:00.634Z,-0.15
2022-11-22T02:13:00.646Z,-0.17
2022-11-22T02:14:00.629Z,-0.15
2022-11-22T02:15:00.599Z,-0.14
2022-11-22T02:16:00.599Z,-0.15
2022-11-22T02:17:00.566Z,-0.14
2022-11-22T02:18:00.572Z,-0.13
2022-11-22T02:19:00.556Z,-0.14
2022-11-22T02:20:00.549Z,-0.14
2022-11-22T02:21:00.518Z,-0.11
2022-11-22T02:22:00.516Z,-0.11
2022-11-22T02:23:00.485Z,-0.10
2022-11-22T02:24:00.489Z,-0.11
2022-11-22T02:25:00.465Z,-0.10
2022-11-22T02:26:00.467Z,-0.08
2022-11-22T02:27:00.468Z,-0.10
2022-11-22T02:28:00.438Z,-0.10
2022-11-22T02:29:00.414Z,-0.08
2022-11-22T02:30:00.417Z,-0.10
2022-11-22T02:31:00.383Z,-0.07
2022-11-22T02:32:00.393Z,-0.07
2022-11-22T02:33:00.363Z,-0.06
2022-11-22T02:34:01.873Z,-0.07
2022-11-22T02:35:00.332Z,-0.06
2022-11-22T02:36:00.314Z,-0.06
2022-11-22T02:37:00.335Z,-0.03
2022-11-22T02:38:00.294Z,-0.06
2022-11-22T02:39:00.292Z,-0.06
2022-11-22T02:40:00.282Z,-0.03
2022-11-22T02:41:00.312Z,-0.03
2022-11-22T02:42:00.299Z,-0.02
2022-11-22T02:43:00.233Z,-0.02
2022-11-22T02:44:00.231Z,0.00
2022-11-22T02:45:00.216Z,0.00
2022-11-22T02:46:00.218Z,0.00
2022-11-22T02:47:00.209Z,0.01
2022-11-22T02:48:00.177Z,0.01
2022-11-22T02:49:00.159Z,0.03
2022-11-22T02:50:00.155Z,0.03
2022-11-22T02:51:00.132Z,0.01
2022-11-22T02:52:00.139Z,0.04
2022-11-22T02:53:00.109Z,0.01
2022-11-22T02:54:00.112Z,0.03
2022-11-22T02:55:00.099Z,0.04
2022-11-22T02:56:00.077Z,0.04
2022-11-22T02:57:00.069Z,0.04
2022-11-22T02:58:00.047Z,0.04
2022-11-22T02:59:00.029Z,0.04
2022-11-22T03:00:00.027Z,0.07
2022-11-22T03:01:00.049Z,0.07
2022-11-22T03:02:03.225Z,0.08
2022-11-22T03:03:00.013Z,0.07
2022-11-22T03:03:59.975Z,0.08
2022-11-22T03:04:59.956Z,0.05
2022-11-22T03:05:59.957Z,0.08
2022-11-22T03:06:59.948Z,0.07
2022-11-22T03:07:59.935Z,0.08
2022-11-22T03:08:59.917Z,0.08
2022-11-22T03:09:59.906Z,0.08
2022-11-22T03:10:59.901Z,0.11
2022-11-22T03:11:59.894Z,0.11
2022-11-22T03:12:59.863Z,0.10
2022-11-22T03:13:59.862Z,0.11
2022-11-22T03:14:59.833Z,0.12
2022-11-22T03:15:59.832Z,0.12
2022-11-22T03:16:59.824Z,0.12
2022-11-22T03:17:59.802Z,0.12
2022-11-22T03:18:59.781Z,0.16
2022-11-22T03:19:59.782Z,0.15
2022-11-22T03:20:59.761Z,0.15
2022-11-22T03:21:59.763Z,0.18
2022-11-22T03:22:59.739Z,0.16
2022-11-22T03:23:59.730Z,0.16
2022-11-22T03:24:59.708Z,0.18
2022-11-22T03:25:59.702Z,0.18
2022-11-22T03:26:59.709Z,0.16
2022-11-22T03:27:59.679Z,0.18
2022-11-22T03:28:59.681Z,0.19
2022-11-22T03:29:59.664Z,0.19
2022-11-22T03:30:59.636Z,0.19
2022-11-22T03:31:59.621Z,0.19
2022-11-22T03:32:59.590Z,0.19
2022-11-22T03:33:59.588Z,0.18
2022-11-22T03:34:59.568Z,0.21
2022-11-22T03:36:00.113Z,0.21
2022-11-22T03:36:59.565Z,0.22
2022-11-22T03:37:59.531Z,0.21
2022-11-22T03:38:59.517Z,0.21
2022-11-22T03:39:59.519Z,0.21
2022-11-22T03:40:59.496Z,0.22
2022-11-22T03:41:59.507Z,0.22
2022-11-22T03:42:59.479Z,0.22
2022-11-22T03:43:59.464Z,0.22
2022-11-22T03:44:59.435Z,0.21
2022-11-22T03:45:59.439Z,0.23
2022-11-22T03:46:59.427Z,0.22
2022-11-22T03:47:59.408Z,0.22
2022-11-22T03:48:59.386Z,0.23
2022-11-22T03:49:59.387Z,0.23
2022-11-22T03:50:59.365Z,0.23
2022-11-22T03:51:59.377Z,0.23
2022-11-22T03:52:59.346Z,0.26
2022-11-22T03:53:59.335Z,0.26
2022-11-22T03:54:59.322Z,0.25
2022-11-22T03:55:59.323Z,0.26
2022-11-22T03:56:59.308Z,0.28
2022-11-22T03:57:59.275Z,0.29
2022-11-22T03:58:59.253Z,0.26
2022-11-22T03:59:59.253Z,0.28
2022-11-22T04:00:59.481Z,0.28
2022-11-22T04:01:59.303Z,0.28
2022-11-22T04:02:59.213Z,0.31
2022-11-22T04:03:59.201Z,0.31
2022-11-22T04:04:59.190Z,0.29
2022-11-22T04:05:59.171Z,0.29
2022-11-22T04:06:59.172Z,0.31
2022-11-22T04:07:59.160Z,0.32
2022-11-22T04:08:59.207Z,0.31
2022-11-22T04:09:59.130Z,0.32
2022-11-22T04:10:59.122Z,0.32
2022-11-22T04:11:59.117Z,0.34
2022-11-22T04:12:59.081Z,0.32
2022-11-22T04:13:59.081Z,0.32
2022-11-22T04:14:59.056Z,0.34
2022-11-22T04:15:59.066Z,0.34
2022-11-22T04:16:59.048Z,0.34
2022-11-22T04:17:59.027Z,0.34
2022-11-22T04:18:59.018Z,0.36
2022-11-22T04:19:59.034Z,0.37
2022-11-22T04:20:58.988Z,0.37
2022-11-22T04:21:58.986Z,0.36
2022-11-22T04:22:58.955Z,0.36
2022-11-22T04:23:58.958Z,0.39
2022-11-22T04:24:58.927Z,0.37
2022-11-22T04:25:58.936Z,0.39
2022-11-22T04:26:58.935Z,0.40
2022-11-22T04:27:58.896Z,0.39
2022-11-22T04:29:13.688Z,0.40
2022-11-22T04:29:59.884Z,0.40
2022-11-22T04:30:58.857Z,0.41
2022-11-22T04:31:58.860Z,0.41
2022-11-22T04:32:58.824Z,0.40
2022-11-22T04:33:58.842Z,0.40
2022-11-22T04:34:58.820Z,0.43
2022-11-22T04:35:58.803Z,0.41
2022-11-22T04:36:58.794Z,0.41
2022-11-22T04:37:58.777Z,0.43
2022-11-22T04:38:58.753Z,0.44
2022-11-22T04:39:58.764Z,0.43
2022-11-22T04:40:58.734Z,0.44
2022-11-22T04:41:58.736Z,0.43
2022-11-22T04:42:58.724Z,0.43
2022-11-22T04:43:58.702Z,0.43
2022-11-22T04:44:58.697Z,0.43
2022-11-22T04:45:58.679Z,0.44
2022-11-22T04:46:58.660Z,0.47
2022-11-22T04:47:58.693Z,0.46
2022-11-22T04:48:58.641Z,0.46
2022-11-22T04:49:58.621Z,0.46
2022-11-22T04:50:58.598Z,0.47
2022-11-22T04:51:58.611Z,0.47
2022-11-22T04:52:58.569Z,0.50
2022-11-22T04:53:58.568Z,0.47
2022-11-22T04:54:58.542Z,0.47
2022-11-22T04:55:58.544Z,0.49
2022-11-22T04:56:58.546Z,0.50
2022-11-22T04:58:00.171Z,0.50
2022-11-22T04:58:58.488Z,0.50
2022-11-22T04:59:58.512Z,0.50
2022-11-22T05:00:58.536Z,0.49
2022-11-22T05:01:58.475Z,0.50
2022-11-22T05:02:58.441Z,0.52
2022-11-22T05:03:58.476Z,0.52
2022-11-22T05:04:58.426Z,0.52
2022-11-22T05:05:58.417Z,0.52
2022-11-22T05:06:58.391Z,0.52
2022-11-22T05:07:58.403Z,0.52
2022-11-22T05:08:58.361Z,0.52
2022-11-22T05:09:58.355Z,0.52
2022-11-22T05:10:58.339Z,0.55
2022-11-22T05:11:58.327Z,0.52
2022-11-22T05:12:58.332Z,0.56
2022-11-22T05:13:58.304Z,0.58
2022-11-22T05:14:58.286Z,0.56
2022-11-22T05:15:58.285Z,0.56
2022-11-22T05:16:58.274Z,0.56
2022-11-22T05:17:58.284Z,0.59
2022-11-22T05:18:58.248Z,0.56
2022-11-22T05:19:58.242Z,0.59
2022-11-22T05:20:58.226Z,0.59
2022-11-22T05:21:58.193Z,0.60
2022-11-22T05:22:58.195Z,0.59
2022-11-22T05:23:58.163Z,0.59
2022-11-22T05:24:58.163Z,0.58
2022-11-22T05:25:58.147Z,0.59
2022-11-22T05:26:58.143Z,0.60
2022-11-22T05:27:58.136Z,0.60
2022-11-22T05:28:58.139Z,0.59
2022-11-22T05:29:58.091Z,0.59
2022-11-22T05:30:58.087Z,0.62
2022-11-22T05:31:58.051Z,0.62
2022-11-22T05:32:58.070Z,0.62
2022-11-22T05:33:58.033Z,0.63
2022-11-22T05:34:58.043Z,0.62
2022-11-22T05:35:58.019Z,0.63
2022-11-22T05:36:58.010Z,0.65
2022-11-22T05:37:58.000Z,0.63
2022-11-22T05:38:57.981Z,0.66
2022-11-22T05:39:58.060Z,0.66
2022-11-22T05:40:58.092Z,0.68
2022-11-22T05:41:57.941Z,0.68
2022-11-22T05:42:57.938Z,0.68
2022-11-22T05:43:57.908Z,0.69
2022-11-22T05:44:57.910Z,0.69
2022-11-22T05:45:57.899Z,0.70
2022-11-22T05:46:57.881Z,0.73
2022-11-22T05:47:57.885Z,0.73
2022-11-22T05:48:57.868Z,0.70
2022-11-22T05:49:57.837Z,0.74
2022-11-22T05:50:57.829Z,0.74
2022-11-22T05:51:57.806Z,0.74
2022-11-22T05:52:57.822Z,0.74
2022-11-22T05:53:57.804Z,0.76
2022-11-22T05:54:57.784Z,0.74
2022-11-22T05:55:57.786Z,0.76
2022-11-22T05:56:57.775Z,0.77
2022-11-22T05:57:57.755Z,0.77
2022-11-22T05:58:57.727Z,0.78
2022-11-22T05:59:57.716Z,0.78
2022-11-22T06:00:57.725Z,0.81
2022-11-22T06:01:57.745Z,0.80
2022-11-22T06:02:57.696Z,0.84
2022-11-22T06:03:57.699Z,0.84
2022-11-22T06:04:57.634Z,0.84
2022-11-22T06:05:57.634Z,0.88
2022-11-22T06:06:57.673Z,0.92
2022-11-22T06:07:57.662Z,0.94
2022-11-22T06:08:57.603Z,0.95
2022-11-22T06:09:57.584Z,0.96
2022-11-22T06:10:57.576Z,0.98
2022-11-22T06:11:57.560Z,0.99
2022-11-22T06:12:57.564Z,0.99
2022-11-22T06:13:57.524Z,1.01
2022-11-22T06:14:57.538Z,1.04
2022-11-22T06:15:57.508Z,1.06
2022-11-22T06:16:57.492Z,1.06
2022-11-22T06:17:57.482Z,1.08
2022-11-22T06:18:57.475Z,1.08
2022-11-22T06:20:01.346Z,1.05
2022-11-22T06:20:58.444Z,1.06
2022-11-22T06:21:57.447Z,1.08
2022-11-22T06:22:57.481Z,1.10
2022-11-22T06:23:57.402Z,1.10
2022-11-22T06:24:57.408Z,1.10
2022-11-22T06:25:57.378Z,1.12
2022-11-22T06:26:57.387Z,1.10
2022-11-22T06:27:57.369Z,1.08
2022-11-22T06:28:57.341Z,1.08
2022-11-22T06:29:57.327Z,1.10
2022-11-22T06:30:57.316Z,1.12
2022-11-22T06:32:03.213Z,1.08
2022-11-22T06:32:58.306Z,1.10
2022-11-22T06:33:57.284Z,1.10
2022-11-22T06:34:57.270Z,1.10
2022-11-22T06:35:57.251Z,1.10
2022-11-22T06:36:57.237Z,1.12
2022-11-22T06:38:00.667Z,1.12
2022-11-22T06:38:57.206Z,1.12
2022-11-22T06:39:57.199Z,1.13
2022-11-22T06:40:57.186Z,1.12
2022-11-22T06:41:57.168Z,1.13
2022-11-22T06:42:57.195Z,1.13
2022-11-22T06:43:57.136Z,1.14
2022-11-22T06:44:57.134Z,1.14
2022-11-22T06:45:57.113Z,1.14
2022-11-22T06:46:57.111Z,1.13
2022-11-22T06:47:57.130Z,1.14
2022-11-22T06:48:57.086Z,1.14
2022-11-22T06:49:57.080Z,1.14
2022-11-22T06:50:57.064Z,1.16
2022-11-22T06:51:57.045Z,1.14
2022-11-22T06:52:57.054Z,1.16
2022-11-22T06:53:57.027Z,1.16
2022-11-22T06:54:57.015Z,1.17
2022-11-22T06:56:01.292Z,1.17
2022-11-22T06:56:56.987Z,1.17
2022-11-22T06:57:56.975Z,1.19
2022-11-22T06:58:56.964Z,1.19
2022-11-22T06:59:56.940Z,1.19
2022-11-22T07:00:56.998Z,1.20
2022-11-22T07:02:01.455Z,1.22
2022-11-22T07:02:57.954Z,1.20
2022-11-22T07:03:56.893Z,1.20
2022-11-22T07:05:24.144Z,1.20
2022-11-22T07:05:57.862Z,1.22
2022-11-22T07:06:56.851Z,1.23
2022-11-22T07:08:04.564Z,1.23
2022-11-22T07:08:57.831Z,1.22
2022-11-22T07:09:56.844Z,1.23
2022-11-22T07:10:56.799Z,1.23
2022-11-22T07:11:56.779Z,1.26
2022-11-22T07:12:56.790Z,1.28
2022-11-22T07:13:59.142Z,1.28
2022-11-22T07:14:57.757Z,1.30
2022-11-22T07:15:56.731Z,1.30
2022-11-22T07:16:56.718Z,1.30
2022-11-22T07:17:56.725Z,1.30
2022-11-22T07:18:56.699Z,1.32
2022-11-22T07:19:56.697Z,1.32
2022-11-22T07:20:56.678Z,1.34
2022-11-22T07:21:56.667Z,1.32
2022-11-22T07:22:56.684Z,1.34
2022-11-22T07:23:56.628Z,1.35
2022-11-22T07:24:56.632Z,1.35
2022-11-22T07:25:56.606Z,1.35
2022-11-22T07:26:56.601Z,1.37
2022-11-22T07:27:56.595Z,1.38
2022-11-22T07:28:56.596Z,1.40
2022-11-22T07:29:56.555Z,1.40
2022-11-22T07:30:56.566Z,1.41
2022-11-22T07:31:56.533Z,1.44
2022-11-22T07:32:56.537Z,1.44
2022-11-22T07:33:56.516Z,1.48
2022-11-22T07:34:56.502Z,1.48
2022-11-22T07:35:56.475Z,1.48
2022-11-22T07:37:00.488Z,1.48
2022-11-22T07:37:57.478Z,1.49
2022-11-22T07:38:56.450Z,1.49
2022-11-22T07:39:56.436Z,1.52
2022-11-22T07:40:56.422Z,1.50
2022-11-22T07:41:56.403Z,1.53
2022-11-22T07:42:58.633Z,1.52
2022-11-22T07:43:56.382Z,1.53
2022-11-22T07:44:56.371Z,1.52
2022-11-22T07:45:56.354Z,1.53
2022-11-22T07:46:56.343Z,1.55
2022-11-22T07:47:56.341Z,1.56
2022-11-22T07:48:56.311Z,1.56
2022-11-22T07:49:56.300Z,1.58
2022-11-22T07:50:56.298Z,1.56
2022-11-22T07:51:56.271Z,1.58
2022-11-22T07:52:56.279Z,1.58
2022-11-22T07:53:56.261Z,1.59
2022-11-22T07:54:56.238Z,1.59
2022-11-22T07:55:56.221Z,1.59
2022-11-22T07:56:56.209Z,1.60
2022-11-22T07:57:56.216Z,1.60
2022-11-22T07:58:56.181Z,1.60
2022-11-22T07:59:56.178Z,1.62
2022-11-22T08:00:56.166Z,1.62
2022-11-22T08:01:56.223Z,1.62
2022-11-22T08:02:56.156Z,1.63
2022-11-22T08:03:56.118Z,1.62
2022-11-22T08:04:56.118Z,1.66
2022-11-22T08:05:56.094Z,1.67
2022-11-22T08:06:56.096Z,1.67
2022-11-22T08:07:56.131Z,1.68
2022-11-22T08:09:01.801Z,1.70
2022-11-22T08:09:57.048Z,1.70
2022-11-22T08:10:56.052Z,1.71
2022-11-22T08:11:56.018Z,1.71
2022-11-22T08:12:56.038Z,1.74
2022-11-22T08:13:56.005Z,1.77
2022-11-22T08:14:55.988Z,1.76
2022-11-22T08:15:59.615Z,1.77
2022-11-22T08:16:56.973Z,1.77
2022-11-22T08:17:55.960Z,1.78
2022-11-22T08:18:55.935Z,1.84
2022-11-22T08:19:55.924Z,1.80
2022-11-22T08:20:55.919Z,1.85
2022-11-22T08:21:58.607Z,1.87
2022-11-22T08:22:55.895Z,1.88
2022-11-22T08:23:55.872Z,1.88
2022-11-22T08:24:55.865Z,1.89
2022-11-22T08:25:55.848Z,1.91
2022-11-22T08:26:55.836Z,1.92
2022-11-22T08:27:55.825Z,1.92
2022-11-22T08:28:55.811Z,1.95
2022-11-22T08:29:55.794Z,1.92
2022-11-22T08:30:55.793Z,1.95
2022-11-22T08:31:55.774Z,1.95
2022-11-22T08:32:55.771Z,1.99
2022-11-22T08:33:55.743Z,2.00
2022-11-22T08:34:55.731Z,1.99
2022-11-22T08:35:55.721Z,1.99
2022-11-22T08:36:55.713Z,2.00
2022-11-22T08:37:55.711Z,2.02
2022-11-22T08:38:55.681Z,2.02
2022-11-22T08:39:55.671Z,2.02
2022-11-22T08:40:55.675Z,2.04
2022-11-22T08:41:55.648Z,2.06
2022-11-22T08:42:55.650Z,2.06
2022-11-22T08:43:55.621Z,2.07
2022-11-22T08:44:55.618Z,2.07
2022-11-22T08:45:55.590Z,2.06
2022-11-22T08:46:55.589Z,2.08
2022-11-22T08:47:55.581Z,2.08
2022-11-22T08:48:55.561Z,2.08
2022-11-22T08:49:55.550Z,2.08
2022-11-22T08:50:55.538Z,2.10
2022-11-22T08:51:55.518Z,2.10
2022-11-22T08:52:55.520Z,2.10
2022-11-22T08:53:55.507Z,2.10
2022-11-22T08:54:55.477Z,2.11
2022-11-22T08:55:55.488Z,2.10
2022-11-22T08:56:55.458Z,2.13
2022-11-22T08:57:55.458Z,2.13
2022-11-22T08:58:55.467Z,2.13
2022-11-22T08:59:55.415Z,2.13
2022-11-22T09:00:55.604Z,2.14
2022-11-22T09:01:55.432Z,2.15
2022-11-22T09:02:55.379Z,2.17
2022-11-22T09:03:55.384Z,2.17
2022-11-22T09:04:55.369Z,2.18
2022-11-22T09:09:09.150Z,2.20
2022-11-22T09:09:56.285Z,2.22
2022-11-22T09:10:55.293Z,2.22
2022-11-22T09:11:55.262Z,2.22
2022-11-22T09:12:55.255Z,2.22
2022-11-22T09:13:55.263Z,2.24
2022-11-22T09:14:55.245Z,2.22
2022-11-22T09:15:55.220Z,2.25
2022-11-22T09:16:55.227Z,2.26
2022-11-22T09:17:55.189Z,2.26
2022-11-22T09:18:55.213Z,2.28
2022-11-22T09:19:55.162Z,2.28
2022-11-22T09:20:55.163Z,2.28
2022-11-22T09:21:55.140Z,2.26
2022-11-22T09:22:55.129Z,2.29
2022-11-22T09:23:55.121Z,2.32
2022-11-22T09:24:55.103Z,2.32
2022-11-22T09:25:55.102Z,2.35
2022-11-22T09:26:55.082Z,2.38
2022-11-22T09:27:55.060Z,2.42
2022-11-22T09:28:55.060Z,2.39
2022-11-22T09:29:55.040Z,2.42
2022-11-22T09:30:55.038Z,2.43
2022-11-22T09:31:55.024Z,2.44
2022-11-22T09:32:55.000Z,2.46
2022-11-22T09:33:55.018Z,2.49
2022-11-22T09:34:54.978Z,2.51
2022-11-22T09:36:02.485Z,2.51
2022-11-22T09:36:54.944Z,2.53
2022-11-22T09:37:54.935Z,2.54
2022-11-22T09:38:54.934Z,2.56
2022-11-22T09:39:54.904Z,2.60
2022-11-22T09:40:54.903Z,2.62
2022-11-22T09:41:54.895Z,2.64
2022-11-22T09:42:54.878Z,2.65
2022-11-22T09:43:54.922Z,2.68
2022-11-22T09:44:54.859Z,2.69
2022-11-22T09:45:54.839Z,2.71
2022-11-22T09:46:54.823Z,2.75
2022-11-22T09:47:54.817Z,2.77
2022-11-22T09:48:54.812Z,2.77
2022-11-22T09:49:54.788Z,2.80
2022-11-22T09:50:54.782Z,2.77
2022-11-22T09:51:54.792Z,2.80
2022-11-22T09:52:54.744Z,2.82
2022-11-22T09:53:54.750Z,2.83
2022-11-22T09:54:54.719Z,2.82
2022-11-22T09:55:54.710Z,2.86
2022-11-22T09:56:54.692Z,2.85
2022-11-22T09:57:54.690Z,2.85
2022-11-22T09:58:54.681Z,2.90
2022-11-22T09:59:54.673Z,2.92
2022-11-22T10:00:54.737Z,2.93
2022-11-22T10:01:54.639Z,2.95
2022-11-22T10:03:00.391Z,2.97
2022-11-22T10:03:55.621Z,2.97
2022-11-22T10:04:54.596Z,3.01
2022-11-22T10:05:54.598Z,3.01
2022-11-22T10:06:54.558Z,3.04
2022-11-22T10:07:54.613Z,3.07
2022-11-22T10:08:54.559Z,3.08
2022-11-22T10:09:54.539Z,3.14
2022-11-22T10:10:54.526Z,3.16
2022-11-22T10:11:54.511Z,3.18
2022-11-22T10:12:54.509Z,3.21
2022-11-22T10:13:54.503Z,3.22
2022-11-22T10:14:54.459Z,3.25
2022-11-22T10:15:54.461Z,3.26
2022-11-22T10:16:54.436Z,3.31
2022-11-22T10:17:54.435Z,3.32
2022-11-22T10:18:54.431Z,3.37
2022-11-22T10:19:54.405Z,3.41
2022-11-22T10:20:54.393Z,3.47
2022-11-22T10:21:54.387Z,3.50
2022-11-22T10:22:54.376Z,3.55
2022-11-22T10:23:54.366Z,3.58
2022-11-22T10:24:54.345Z,3.62
2022-11-22T10:25:54.324Z,3.65
2022-11-22T10:26:54.309Z,3.69
2022-11-22T10:27:57.656Z,3.73
2022-11-22T10:28:55.305Z,3.78
2022-11-22T10:29:54.283Z,3.78
2022-11-22T10:30:54.282Z,3.87
2022-11-22T10:31:54.250Z,3.91
2022-11-22T10:32:54.234Z,3.95
2022-11-22T10:33:54.243Z,3.99
2022-11-22T10:34:54.205Z,4.01
2022-11-22T10:35:54.196Z,4.02
2022-11-22T10:36:54.182Z,4.05
2022-11-22T10:37:54.176Z,4.05
2022-11-22T10:38:54.172Z,4.04
2022-11-22T10:39:54.144Z,4.06
2022-11-22T10:40:54.141Z,4.06
2022-11-22T10:41:54.129Z,4.08
2022-11-22T10:42:54.104Z,4.10
2022-11-22T10:43:54.110Z,4.12
2022-11-22T10:44:54.082Z,4.12
2022-11-22T10:45:54.072Z,4.14
2022-11-22T10:46:57.008Z,4.13
2022-11-22T10:47:54.058Z,4.14
2022-11-22T10:48:54.046Z,4.16
2022-11-22T10:49:54.021Z,4.17
2022-11-22T10:50:54.011Z,4.17
2022-11-22T10:51:54.003Z,4.23
2022-11-22T10:52:53.988Z,4.23
2022-11-22T10:53:56.546Z,4.26
2022-11-22T10:54:54.949Z,4.26
2022-11-22T10:55:53.939Z,4.30
2022-11-22T10:56:53.927Z,4.32
2022-11-22T10:57:53.919Z,4.34
2022-11-22T10:58:53.918Z,4.34
2022-11-22T10:59:53.897Z,4.35
2022-11-22T11:00:53.912Z,4.37
2022-11-22T11:01:53.874Z,4.40
2022-11-22T11:02:53.847Z,4.44
2022-11-22T11:03:53.865Z,4.44
2022-11-22T11:04:53.826Z,4.44
2022-11-22T11:06:21.559Z,4.48
2022-11-22T11:07:11.710Z,4.49
2022-11-22T11:08:04.206Z,4.50
2022-11-22T11:09:47.699Z,4.50
2022-11-22T11:10:10.672Z,4.52
2022-11-22T11:10:54.756Z,4.56
2022-11-22T11:11:53.736Z,4.56
2022-11-22T11:12:53.720Z,4.55
2022-11-22T11:13:53.732Z,4.58
2022-11-22T11:14:53.695Z,4.60
2022-11-22T11:15:56.202Z,4.60
2022-11-22T11:16:53.675Z,4.60
2022-11-22T11:17:53.656Z,4.63
2022-11-22T11:18:53.662Z,4.68
2022-11-22T11:19:53.635Z,4.71
2022-11-22T11:20:53.624Z,4.74
2022-11-22T11:21:53.615Z,4.75
2022-11-22T11:23:54.595Z,4.78
2022-11-22T11:24:53.564Z,4.84
2022-11-22T11:25:53.561Z,4.89
2022-11-22T11:26:53.543Z,4.92
2022-11-22T11:27:53.532Z,4.94
2022-11-22T11:28:53.531Z,4.97
2022-11-22T11:29:53.510Z,4.99
2022-11-22T11:30:53.491Z,5.00
2022-11-22T11:31:53.483Z,5.07
2022-11-22T11:32:53.469Z,5.05
2022-11-22T11:33:53.474Z,5.07
2022-11-22T11:34:53.435Z,5.11
2022-11-22T11:35:53.430Z,5.14
2022-11-22T11:36:53.412Z,5.14
2022-11-22T11:37:53.401Z,5.12
2022-11-22T11:38:53.400Z,5.17
2022-11-22T11:39:53.372Z,5.25
2022-11-22T11:40:53.381Z,5.25
2022-11-22T11:41:53.355Z,5.30
2022-11-22T11:42:53.334Z,5.32
2022-11-22T11:43:53.342Z,5.36
2022-11-22T11:44:53.310Z,5.41
2022-11-22T11:45:53.298Z,5.39
2022-11-22T11:46:53.279Z,5.39
2022-11-22T11:47:53.278Z,5.44
2022-11-22T11:48:53.271Z,5.46
2022-11-22T11:49:53.257Z,5.48
2022-11-22T11:50:53.248Z,5.50
2022-11-22T11:51:53.221Z,5.56
2022-11-22T11:52:53.213Z,5.59
2022-11-22T11:53:53.229Z,5.65
2022-11-22T11:54:53.183Z,5.65
2022-11-22T11:55:53.180Z,5.69
2022-11-22T11:56:53.171Z,5.75
2022-11-22T11:57:53.142Z,5.73
2022-11-22T11:58:53.147Z,5.80
2022-11-22T11:59:53.129Z,5.79
2022-11-22T12:00:53.109Z,5.80
2022-11-22T12:01:53.148Z,5.82
2022-11-22T12:02:53.135Z,5.80
2022-11-22T12:03:53.087Z,5.82
2022-11-22T12:04:53.049Z,5.80
2022-11-22T12:05:53.037Z,5.82
2022-11-22T12:06:53.026Z,5.83
2022-11-22T12:07:53.073Z,5.86
2022-11-22T12:08:53.008Z,5.93
2022-11-22T12:09:52.998Z,5.97
2022-11-22T12:10:52.981Z,5.99
2022-11-22T12:11:52.968Z,6.01
2022-11-22T12:12:52.947Z,6.02
2022-11-22T12:15:10.916Z,6.07
2022-11-22T12:15:53.915Z,6.11
2022-11-22T12:16:52.896Z,6.09
2022-11-22T12:17:52.892Z,6.11
2022-11-22T12:18:52.865Z,6.14
2022-11-22T12:19:52.887Z,6.16
2022-11-22T12:20:52.844Z,6.17
2022-11-22T12:21:52.836Z,6.16
2022-11-22T12:22:52.816Z,6.19
2022-11-22T12:23:52.813Z,6.20
2022-11-22T12:25:24.295Z,6.22
2022-11-22T12:25:53.784Z,6.24
2022-11-22T12:26:52.771Z,6.27
2022-11-22T12:27:52.760Z,6.27
2022-11-22T12:28:52.748Z,6.28
2022-11-22T12:29:52.754Z,6.30
2022-11-22T12:30:52.723Z,6.30
2022-11-22T12:31:52.713Z,6.35
2022-11-22T12:32:52.691Z,6.36
2022-11-22T12:33:52.690Z,6.39
2022-11-22T12:34:52.682Z,6.38
2022-11-22T12:35:52.665Z,6.41
2022-11-22T12:36:52.642Z,6.42
2022-11-22T12:37:52.628Z,6.42
2022-11-22T12:38:52.613Z,6.44
2022-11-22T12:39:52.623Z,6.45
2022-11-22T12:40:52.593Z,6.46
2022-11-22T12:41:52.580Z,6.46
2022-11-22T12:42:52.570Z,6.49
2022-11-22T12:43:52.551Z,6.48
2022-11-22T12:44:52.553Z,6.49
2022-11-22T12:45:52.522Z,6.52
2022-11-22T12:46:52.521Z,6.49
2022-11-22T12:47:52.502Z,6.49
2022-11-22T12:48:52.490Z,6.49
2022-11-22T12:49:52.494Z,6.52
2022-11-22T12:50:52.458Z,6.54
2022-11-22T12:51:52.449Z,6.56
2022-11-22T12:52:52.440Z,6.57
2022-11-22T12:53:52.428Z,6.60
2022-11-22T12:54:52.428Z,6.62
2022-11-22T12:55:52.410Z,6.63
2022-11-22T12:56:52.403Z,6.64
2022-11-22T12:57:52.380Z,6.66
2022-11-22T12:58:52.358Z,6.67
2022-11-22T12:59:52.389Z,6.69
2022-11-22T13:00:52.382Z,6.69
2022-11-22T13:01:52.429Z,6.74
2022-11-22T13:02:58.643Z,6.75
2022-11-22T13:03:53.312Z,6.77
2022-11-22T13:04:52.302Z,6.75
2022-11-22T13:05:52.280Z,6.75
2022-11-22T13:06:52.257Z,6.78
2022-11-22T13:07:52.331Z,6.78
2022-11-22T13:08:55.572Z,6.79
2022-11-22T13:09:53.248Z,6.81
2022-11-22T13:10:52.219Z,6.81
2022-11-22T13:11:52.204Z,6.85
2022-11-22T13:12:52.186Z,6.87
2022-11-22T13:13:52.179Z,6.88
2022-11-22T13:14:52.177Z,6.93
2022-11-22T13:15:52.152Z,6.95
2022-11-22T13:16:52.146Z,6.93
2022-11-22T13:17:52.149Z,6.95